createdAt,value
2019-03-29T00:00:39.705Z,32.88
2019-03-29T00:03:09.213Z,33.63
2019-03-29T00:05:38.480Z,36.03
2019-03-29T00:08:09.161Z,31.42
2019-03-29T00:10:38.466Z,28.38
2019-03-29T00:13:07.618Z,35.88
2019-03-29T00:15:36.966Z,26.35
2019-03-29T00:18:06.233Z,34.90
2019-03-29T00:20:35.370Z,29.20
2019-03-29T00:23:04.524Z,29.15
2019-03-29T00:25:33.682Z,26.95
2019-03-29T00:28:02.920Z,29.10
2019-03-29T00:30:32.068Z,27.42
2019-03-29T00:33:01.285Z,36.20
2019-03-29T00:35:30.321Z,35.00
2019-03-29T00:37:59.372Z,30.35
2019-03-29T00:40:28.438Z,30.17
2019-03-29T00:42:57.691Z,28.47
2019-03-29T00:45:26.723Z,31.50
2019-03-29T00:47:56.115Z,30.77
2019-03-29T00:50:25.349Z,32.80
2019-03-29T00:52:54.507Z,29.67
2019-03-29T00:55:23.815Z,30.92
2019-03-29T00:57:52.872Z,30.23
2019-03-29T01:00:22.252Z,33.53
2019-03-29T01:02:51.317Z,34.03
2019-03-29T01:05:20.981Z,31.93
2019-03-29T01:07:50.306Z,33.92
2019-03-29T01:10:19.544Z,35.13
2019-03-29T01:12:48.595Z,36.83
2019-03-29T01:15:17.861Z,33.18
2019-03-29T01:17:46.935Z,32.63
2019-03-29T01:20:16.175Z,33.23
2019-03-29T01:22:45.325Z,38.63
2019-03-29T01:25:14.486Z,34.85
2019-03-29T01:27:43.673Z,34.40
2019-03-29T01:30:13.140Z,33.08
2019-03-29T01:32:42.228Z,56.37
2019-03-29T01:35:11.578Z,61.88
2019-03-29T01:37:40.618Z,34.95
2019-03-29T01:40:10.176Z,41.98
2019-03-29T01:42:39.236Z,35.73
2019-03-29T01:45:08.969Z,45.33
2019-03-29T01:47:38.148Z,44.00
2019-03-29T01:50:08.170Z,38.05
2019-03-29T01:52:37.484Z,37.98
2019-03-29T01:55:07.151Z,36.10
2019-03-29T01:57:36.198Z,43.00
2019-03-29T02:00:06.157Z,39.50
2019-03-29T02:02:35.324Z,37.05
2019-03-29T02:05:05.382Z,45.67
2019-03-29T02:07:34.411Z,45.90
2019-03-29T02:10:05.733Z,39.45
2019-03-29T02:12:34.804Z,43.92
2019-03-29T02:15:05.461Z,43.78
2019-03-29T02:17:34.722Z,46.88
2019-03-29T02:20:05.280Z,42.85
2019-03-29T02:22:34.448Z,49.63
2019-03-29T02:25:04.437Z,47.33
2019-03-29T02:27:33.487Z,43.20
2019-03-29T02:30:04.205Z,45.05
2019-03-29T02:32:33.802Z,45.12
2019-03-29T02:35:03.129Z,44.13
2019-03-29T02:37:32.186Z,45.80
2019-03-29T02:40:01.234Z,40.95
2019-03-29T02:42:30.291Z,44.33
2019-03-29T02:44:59.344Z,45.15
2019-03-29T02:47:28.396Z,45.25
2019-03-29T02:49:57.600Z,47.25
2019-03-29T02:52:26.604Z,44.40
2019-03-29T02:54:55.760Z,41.37
2019-03-29T02:57:25.017Z,43.40
2019-03-29T02:59:54.168Z,46.18
2019-03-29T03:02:26.394Z,44.08
2019-03-29T03:04:54.290Z,42.43
2019-03-29T03:07:23.433Z,42.40
2019-03-29T03:09:52.579Z,43.83
2019-03-29T03:12:21.692Z,41.30
2019-03-29T03:14:50.729Z,46.40
2019-03-29T03:17:20.085Z,45.38
2019-03-29T03:19:49.147Z,46.53
2019-03-29T03:22:18.283Z,42.58
2019-03-29T03:24:47.335Z,46.25
2019-03-29T03:27:16.393Z,44.85
2019-03-29T03:29:47.955Z,45.75
2019-03-29T03:32:16.677Z,47.73
2019-03-29T03:34:45.824Z,65.97
2019-03-29T03:37:14.933Z,55.63
2019-03-29T03:39:44.010Z,48.52
2019-03-29T03:42:13.048Z,43.90
2019-03-29T03:44:42.077Z,48.38
2019-03-29T03:47:11.231Z,57.13
2019-03-29T03:49:40.371Z,42.05
2019-03-29T03:52:09.614Z,45.05
2019-03-29T03:54:39.989Z,45.15
2019-03-29T03:57:10.311Z,48.60
2019-03-29T03:59:39.483Z,43.15
2019-03-29T04:02:08.617Z,48.48
2019-03-29T04:04:38.131Z,47.83
2019-03-29T04:07:07.309Z,50.33
2019-03-29T04:09:49.129Z,49.83
2019-03-29T04:12:07.361Z,53.15
2019-03-29T04:14:36.408Z,54.83
2019-03-29T04:17:05.562Z,57.65
2019-03-29T04:19:34.611Z,50.35
2019-03-29T04:22:03.725Z,53.68
2019-03-29T04:24:32.711Z,50.23
2019-03-29T04:27:01.787Z,49.95
2019-03-29T04:29:30.821Z,50.17
2019-03-29T04:31:59.871Z,57.62
2019-03-29T04:34:28.942Z,69.58
2019-03-29T04:36:58.040Z,51.77
2019-03-29T04:39:27.066Z,78.15
2019-03-29T04:41:56.140Z,51.23
2019-03-29T04:44:25.176Z,53.52
2019-03-29T04:46:54.292Z,54.67
2019-03-29T04:49:23.289Z,54.45
2019-03-29T04:51:52.431Z,56.77
2019-03-29T04:54:21.500Z,52.08
2019-03-29T04:56:50.672Z,55.67
2019-03-29T04:59:19.816Z,50.48
2019-03-29T05:01:48.892Z,50.52
2019-03-29T05:04:18.207Z,56.73
2019-03-29T05:06:47.361Z,54.93
2019-03-29T05:09:16.515Z,55.17
2019-03-29T05:11:45.604Z,56.02
2019-03-29T05:14:14.646Z,56.42
2019-03-29T05:16:43.693Z,49.90
2019-03-29T05:19:12.755Z,57.48
2019-03-29T05:21:41.907Z,76.92
2019-03-29T05:24:10.946Z,61.88
2019-03-29T05:26:40.284Z,60.03
2019-03-29T05:29:09.315Z,57.05
2019-03-29T05:31:38.358Z,51.25
2019-03-29T05:34:07.450Z,52.55
2019-03-29T05:36:36.609Z,56.42
2019-03-29T05:39:06.027Z,47.43
2019-03-29T05:41:35.216Z,59.88
2019-03-29T05:44:04.657Z,53.42
2019-03-29T05:46:33.721Z,53.65
2019-03-29T05:49:02.986Z,57.48
2019-03-29T05:51:32.169Z,54.25
2019-03-29T05:54:01.318Z,59.73
2019-03-29T05:56:30.505Z,53.63
2019-03-29T05:58:59.577Z,52.43
2019-03-29T06:01:28.734Z,55.60
2019-03-29T06:03:57.790Z,55.33
2019-03-29T06:06:26.833Z,68.02
2019-03-29T06:08:55.897Z,52.88
2019-03-29T06:11:25.302Z,48.92
2019-03-29T06:13:54.455Z,55.48
2019-03-29T06:16:23.621Z,52.67
2019-03-29T06:18:52.696Z,72.58
2019-03-29T06:21:21.790Z,50.58
2019-03-29T06:23:50.825Z,46.73
2019-03-29T06:26:20.210Z,56.28
2019-03-29T06:28:49.448Z,45.88
2019-03-29T06:31:18.596Z,49.85
2019-03-29T06:33:47.761Z,53.90
2019-03-29T06:36:18.476Z,46.60
2019-03-29T06:38:49.814Z,45.63
2019-03-29T06:41:18.895Z,41.77
2019-03-29T06:43:48.083Z,38.63
2019-03-29T06:46:17.146Z,43.63
2019-03-29T06:48:46.347Z,46.90
2019-03-29T06:51:15.396Z,47.78
2019-03-29T06:53:44.566Z,45.45
2019-03-29T06:56:13.702Z,40.23
2019-03-29T06:58:42.705Z,38.65
2019-03-29T07:01:11.863Z,40.45
2019-03-29T07:03:40.928Z,37.08
2019-03-29T07:06:10.139Z,39.92
2019-03-29T07:08:39.291Z,41.18
2019-03-29T07:11:17.163Z,36.73
2019-03-29T07:13:39.500Z,30.68
2019-03-29T07:16:08.555Z,27.80
2019-03-29T07:18:37.614Z,22.98
2019-03-29T07:21:15.692Z,26.07
2019-03-29T07:23:37.908Z,20.72
2019-03-29T07:26:07.158Z,25.12
2019-03-29T07:28:36.222Z,25.55
2019-03-29T07:31:05.401Z,25.88
2019-03-29T07:33:34.452Z,19.75
2019-03-29T07:36:03.704Z,23.50
2019-03-29T07:38:32.971Z,25.57
2019-03-29T07:41:02.161Z,19.77
2019-03-29T07:43:31.393Z,18.67
2019-03-29T07:46:00.457Z,17.35
2019-03-29T07:48:29.510Z,19.73
2019-03-29T07:50:58.555Z,18.45
2019-03-29T07:53:27.620Z,19.90
2019-03-29T07:55:56.758Z,17.10
2019-03-29T07:58:25.915Z,15.98
2019-03-29T08:00:54.981Z,18.50
2019-03-29T08:03:24.255Z,14.68
2019-03-29T08:05:53.288Z,20.30
2019-03-29T08:08:25.018Z,17.48
2019-03-29T08:10:54.075Z,17.07
2019-03-29T08:13:23.641Z,17.02
2019-03-29T08:15:52.732Z,19.40
2019-03-29T08:18:21.745Z,14.53
2019-03-29T08:20:50.840Z,17.45
2019-03-29T08:23:19.888Z,12.73
2019-03-29T08:25:49.044Z,14.30
2019-03-29T08:28:18.220Z,13.20
2019-03-29T08:30:47.280Z,18.67
2019-03-29T08:33:16.390Z,14.15
2019-03-29T08:35:45.466Z,12.10
2019-03-29T08:38:14.561Z,14.90
2019-03-29T08:40:45.347Z,16.37
2019-03-29T08:43:14.680Z,13.38
2019-03-29T08:45:43.717Z,14.75
2019-03-29T08:48:12.971Z,14.40
2019-03-29T08:50:42.153Z,20.12
2019-03-29T08:53:11.406Z,14.40
2019-03-29T08:55:46.095Z,14.50
2019-03-29T08:58:11.947Z,12.35
2019-03-29T09:00:41.178Z,13.32
2019-03-29T09:03:10.331Z,11.33
2019-03-29T09:05:40.300Z,12.95
2019-03-29T09:08:09.548Z,13.68
2019-03-29T09:10:38.681Z,14.58
2019-03-29T09:13:07.750Z,12.50
2019-03-29T09:15:36.886Z,12.70
2019-03-29T09:18:06.071Z,12.78
2019-03-29T09:20:35.139Z,14.35
2019-03-29T09:23:04.284Z,14.80
2019-03-29T09:25:33.445Z,11.75
2019-03-29T09:28:02.733Z,11.93
2019-03-29T09:30:31.771Z,14.85
2019-03-29T09:33:00.835Z,10.25
2019-03-29T09:35:30.092Z,11.20
2019-03-29T09:37:59.147Z,10.15
2019-03-29T09:40:28.288Z,18.80
2019-03-29T09:43:07.313Z,11.57
2019-03-29T09:45:28.699Z,12.95
2019-03-29T09:47:57.759Z,10.60
2019-03-29T09:50:26.994Z,11.22
2019-03-29T09:52:56.244Z,12.53
2019-03-29T09:55:25.301Z,9.88
2019-03-29T09:57:54.353Z,13.03
2019-03-29T10:00:23.887Z,14.90
2019-03-29T10:02:53.069Z,11.43
2019-03-29T10:05:22.228Z,11.18
2019-03-29T10:07:51.476Z,11.75
2019-03-29T10:10:20.551Z,12.85
2019-03-29T10:12:49.643Z,11.05
2019-03-29T10:15:18.815Z,10.72
2019-03-29T10:17:48.083Z,10.95
2019-03-29T10:20:17.252Z,11.83
2019-03-29T10:22:46.412Z,11.60
2019-03-29T10:25:19.493Z,11.10
2019-03-29T10:27:46.634Z,14.83
2019-03-29T10:30:39.815Z,12.00
2019-03-29T10:33:09.082Z,11.68
2019-03-29T10:35:50.755Z,9.43
2019-03-29T10:38:09.484Z,10.43
2019-03-29T10:40:38.779Z,10.03
2019-03-29T10:43:08.035Z,12.85
2019-03-29T10:45:40.316Z,11.12
2019-03-29T10:48:08.476Z,12.73
2019-03-29T10:50:37.752Z,11.95
2019-03-29T10:53:06.814Z,11.97
2019-03-29T10:55:36.136Z,10.48
2019-03-29T10:58:05.281Z,9.68
2019-03-29T11:00:36.442Z,9.38
2019-03-29T11:03:06.251Z,8.25
2019-03-29T11:05:35.692Z,11.43
2019-03-29T11:08:05.359Z,10.80
2019-03-29T11:10:35.368Z,15.45
2019-03-29T11:13:12.692Z,12.00
2019-03-29T11:15:35.818Z,10.85
2019-03-29T11:18:05.467Z,13.72
2019-03-29T11:20:34.694Z,10.32
2019-03-29T11:23:03.865Z,11.20
2019-03-29T11:25:33.208Z,9.50
2019-03-29T11:28:02.460Z,9.00
2019-03-29T11:30:42.065Z,11.80
2019-03-29T11:33:03.017Z,9.90
2019-03-29T11:35:32.299Z,9.68
2019-03-29T11:38:01.362Z,10.45
2019-03-29T11:40:30.512Z,8.93
2019-03-29T11:42:59.580Z,10.32
2019-03-29T11:45:29.026Z,9.15
2019-03-29T11:48:08.498Z,9.53
2019-03-29T11:50:29.378Z,10.68
2019-03-29T11:52:58.494Z,11.18
2019-03-29T11:55:27.759Z,12.20
2019-03-29T11:57:56.823Z,11.97
2019-03-29T12:00:33.724Z,7.28
2019-03-29T12:03:03.195Z,8.50
2019-03-29T12:05:35.975Z,14.28
2019-03-29T12:08:04.242Z,9.68
2019-03-29T12:10:33.713Z,10.30
2019-03-29T12:13:03.161Z,10.82
2019-03-29T12:15:32.419Z,9.50
2019-03-29T12:18:01.714Z,9.00
2019-03-29T12:20:30.855Z,9.65
2019-03-29T12:23:00.111Z,10.45
2019-03-29T12:25:29.281Z,9.13
2019-03-29T12:27:58.423Z,11.57
2019-03-29T12:30:31.953Z,10.72
2019-03-29T12:32:58.632Z,9.48
2019-03-29T12:35:27.887Z,10.13
2019-03-29T12:37:57.131Z,9.88
2019-03-29T12:40:26.408Z,9.55
2019-03-29T12:42:55.556Z,13.45
2019-03-29T12:45:24.708Z,9.95
2019-03-29T12:47:53.775Z,11.60
2019-03-29T12:50:22.835Z,11.00
2019-03-29T12:52:51.891Z,8.68
2019-03-29T12:55:20.965Z,12.98
2019-03-29T12:57:50.125Z,12.03
2019-03-29T13:00:19.400Z,13.30
2019-03-29T13:02:48.697Z,9.58
2019-03-29T13:05:17.847Z,10.10
2019-03-29T13:07:46.992Z,9.53
2019-03-29T13:10:16.352Z,11.50
2019-03-29T13:12:45.403Z,9.20
2019-03-29T13:15:14.707Z,12.07
2019-03-29T13:17:43.757Z,13.38
2019-03-29T13:20:13.107Z,11.53
2019-03-29T13:22:42.145Z,13.15
2019-03-29T13:25:12.147Z,11.25
2019-03-29T13:27:41.415Z,11.65
2019-03-29T13:30:11.061Z,10.18
2019-03-29T13:32:40.217Z,9.58
2019-03-29T13:35:09.525Z,10.45
2019-03-29T13:37:38.580Z,9.98
2019-03-29T13:40:08.720Z,12.00
2019-03-29T13:42:37.871Z,10.58
2019-03-29T13:45:08.510Z,11.12
2019-03-29T13:47:37.698Z,13.43
2019-03-29T13:50:08.287Z,12.55
2019-03-29T13:52:37.615Z,11.88
2019-03-29T13:55:07.089Z,12.80
2019-03-29T13:57:36.288Z,10.45
2019-03-29T14:00:09.021Z,10.70
2019-03-29T14:02:38.235Z,11.60
2019-03-29T14:05:08.738Z,10.50
2019-03-29T14:07:38.611Z,10.72
2019-03-29T14:10:08.437Z,11.20
2019-03-29T14:12:37.995Z,16.12
2019-03-29T14:15:09.094Z,10.68
2019-03-29T14:17:38.368Z,10.32
2019-03-29T14:20:08.339Z,10.93
2019-03-29T14:22:37.493Z,18.65
2019-03-29T14:25:07.211Z,7.60
2019-03-29T14:27:36.488Z,9.83
2019-03-29T14:30:06.837Z,9.88
2019-03-29T14:32:36.018Z,7.85
2019-03-29T14:35:07.245Z,8.30
2019-03-29T14:37:36.331Z,8.58
2019-03-29T14:40:06.346Z,13.30
2019-03-29T14:42:35.547Z,25.45
2019-03-29T14:45:05.426Z,9.13
2019-03-29T14:47:41.399Z,10.58
2019-03-29T14:50:07.261Z,7.85
2019-03-29T14:52:36.483Z,8.33
2019-03-29T14:55:06.143Z,14.68
2019-03-29T14:57:35.341Z,10.65
2019-03-29T15:00:07.694Z,11.03
2019-03-29T15:02:37.067Z,8.60
2019-03-29T15:05:07.610Z,15.18
2019-03-29T15:07:37.681Z,12.13
2019-03-29T15:10:12.526Z,9.45
2019-03-29T15:12:41.621Z,13.32
2019-03-29T15:15:10.928Z,11.40
2019-03-29T15:17:40.174Z,10.23
2019-03-29T15:20:09.840Z,9.53
2019-03-29T15:22:39.047Z,10.35
2019-03-29T15:25:08.305Z,9.45
2019-03-29T15:27:37.614Z,10.65
2019-03-29T15:30:07.122Z,11.03
2019-03-29T15:32:36.190Z,10.40
2019-03-29T15:35:06.397Z,10.15
2019-03-29T15:37:35.565Z,17.60
2019-03-29T15:40:05.783Z,10.75
2019-03-29T15:42:34.941Z,11.03
2019-03-29T15:45:04.670Z,15.35
2019-03-29T15:47:33.968Z,13.03
2019-03-29T15:50:03.341Z,8.73
2019-03-29T15:52:32.639Z,16.73
2019-03-29T15:55:01.796Z,10.98
2019-03-29T15:57:30.971Z,14.07
2019-03-29T16:00:00.143Z,10.38
2019-03-29T16:02:30.132Z,9.38
2019-03-29T16:04:59.328Z,11.25
2019-03-29T16:07:28.515Z,10.80
2019-03-29T16:09:57.764Z,12.60
2019-03-29T16:12:26.930Z,14.00
2019-03-29T16:14:56.289Z,10.82
2019-03-29T16:17:25.498Z,11.00
2019-03-29T16:19:54.547Z,13.68
2019-03-29T16:22:23.845Z,11.88
2019-03-29T16:24:53.163Z,12.37
2019-03-29T16:27:24.980Z,11.93
2019-03-29T16:29:53.329Z,10.98
2019-03-29T16:32:22.486Z,14.33
2019-03-29T16:34:51.727Z,11.53
2019-03-29T16:37:21.047Z,13.15
2019-03-29T16:39:50.226Z,12.75
2019-03-29T16:42:19.324Z,12.37
2019-03-29T16:44:48.436Z,12.43
2019-03-29T16:47:17.566Z,16.45
2019-03-29T16:49:46.713Z,9.20
2019-03-29T16:52:16.054Z,15.83
2019-03-29T16:54:45.217Z,19.67
2019-03-29T16:57:14.280Z,13.50
2019-03-29T16:59:43.800Z,11.73
2019-03-29T17:02:12.991Z,15.85
2019-03-29T17:04:42.258Z,15.58
2019-03-29T17:07:11.428Z,12.63
2019-03-29T17:09:40.483Z,15.85
2019-03-29T17:12:09.665Z,13.38
2019-03-29T17:14:38.741Z,18.50
2019-03-29T17:17:07.901Z,12.58
2019-03-29T17:19:37.035Z,15.50
2019-03-29T17:22:06.126Z,11.68
2019-03-29T17:24:35.177Z,12.33
2019-03-29T17:27:04.224Z,13.00
2019-03-29T17:29:33.302Z,13.55
2019-03-29T17:32:02.344Z,18.85
2019-03-29T17:34:31.504Z,13.08
2019-03-29T17:37:00.769Z,13.10
2019-03-29T17:39:29.915Z,13.83
2019-03-29T17:41:59.069Z,12.90
2019-03-29T17:44:28.137Z,13.70
2019-03-29T17:46:57.272Z,16.42
2019-03-29T17:49:26.331Z,11.70
2019-03-29T17:51:55.514Z,15.98
2019-03-29T17:54:24.559Z,18.62
2019-03-29T17:56:53.720Z,15.58
2019-03-29T17:59:22.812Z,17.57
2019-03-29T18:01:52.054Z,15.58
2019-03-29T18:04:21.110Z,30.30
2019-03-29T18:06:50.174Z,26.80
2019-03-29T18:09:19.216Z,11.83
2019-03-29T18:11:48.375Z,12.88
2019-03-29T18:14:17.485Z,13.28
2019-03-29T18:16:46.530Z,16.57
2019-03-29T18:19:15.715Z,14.23
2019-03-29T18:21:44.795Z,18.23
2019-03-29T18:24:13.859Z,13.32
2019-03-29T18:26:42.904Z,15.00
2019-03-29T18:29:12.084Z,18.92
2019-03-29T18:31:41.225Z,16.30
2019-03-29T18:34:10.307Z,16.87
2019-03-29T18:36:41.007Z,16.23
2019-03-29T18:39:10.170Z,15.60
2019-03-29T18:41:39.210Z,16.90
2019-03-29T18:44:08.295Z,17.73
2019-03-29T18:46:44.626Z,16.93
2019-03-29T18:49:08.419Z,19.45
2019-03-29T18:51:37.390Z,16.97
2019-03-29T18:54:06.448Z,15.63
2019-03-29T18:56:35.726Z,21.07
2019-03-29T18:59:04.772Z,21.42
2019-03-29T19:01:33.827Z,17.10
2019-03-29T19:04:03.133Z,18.57
2019-03-29T19:06:32.287Z,22.17
2019-03-29T19:09:01.430Z,17.70
2019-03-29T19:11:30.762Z,19.42
2019-03-29T19:13:59.916Z,17.10
2019-03-29T19:16:28.966Z,18.57
2019-03-29T19:19:09.494Z,21.27
2019-03-29T19:21:29.091Z,18.95
2019-03-29T19:23:58.149Z,19.15
2019-03-29T19:26:27.606Z,21.55
2019-03-29T19:28:56.667Z,20.08
2019-03-29T19:31:25.713Z,20.25
2019-03-29T19:33:54.778Z,22.50
2019-03-29T19:36:23.823Z,21.20
2019-03-29T19:38:52.884Z,21.65
2019-03-29T19:41:22.071Z,18.92
2019-03-29T19:43:51.116Z,23.80
2019-03-29T19:46:20.199Z,30.72
2019-03-29T19:48:49.723Z,18.77
2019-03-29T19:51:18.838Z,21.27
2019-03-29T19:53:47.936Z,19.70
2019-03-29T19:56:17.089Z,23.73
2019-03-29T19:58:46.105Z,22.77
2019-03-29T20:01:15.299Z,20.08
2019-03-29T20:03:44.599Z,24.45
2019-03-29T20:06:13.711Z,22.60
2019-03-29T20:08:42.765Z,21.70
2019-03-29T20:11:12.115Z,22.37
2019-03-29T20:13:41.273Z,22.48
2019-03-29T20:16:10.317Z,24.65
2019-03-29T20:18:39.399Z,24.90
2019-03-29T20:21:08.436Z,23.22
2019-03-29T20:23:37.578Z,21.20
2019-03-29T20:26:08.287Z,22.20
2019-03-29T20:28:39.039Z,18.67
2019-03-29T20:31:08.306Z,23.92
2019-03-29T20:33:37.494Z,21.52
2019-03-29T20:36:06.676Z,20.23
2019-03-29T20:38:35.930Z,22.50
2019-03-29T20:41:05.132Z,21.73
2019-03-29T20:43:34.175Z,24.15
2019-03-29T20:46:05.513Z,26.70
2019-03-29T20:48:35.087Z,26.37
2019-03-29T20:51:04.251Z,23.05
2019-03-29T20:53:33.294Z,23.77
2019-03-29T20:56:02.472Z,27.05
2019-03-29T20:58:31.507Z,27.17
2019-03-29T21:01:00.568Z,27.82
2019-03-29T21:03:29.635Z,31.73
2019-03-29T21:05:58.780Z,32.28
2019-03-29T21:08:27.919Z,31.35
2019-03-29T21:10:57.178Z,29.30
2019-03-29T21:13:26.273Z,33.05
2019-03-29T21:15:55.271Z,28.10
2019-03-29T21:18:24.336Z,27.90
2019-03-29T21:20:53.385Z,29.10
2019-03-29T21:23:22.599Z,31.48
2019-03-29T21:25:51.831Z,35.40
2019-03-29T21:28:20.854Z,30.72
2019-03-29T21:30:49.904Z,37.80
2019-03-29T21:33:19.033Z,36.50
2019-03-29T21:35:48.353Z,57.50
2019-03-29T21:38:17.746Z,32.95
2019-03-29T21:40:46.819Z,34.20
2019-03-29T21:43:16.057Z,30.00
2019-03-29T21:45:45.304Z,32.08
2019-03-29T21:48:28.182Z,38.13
2019-03-29T21:50:45.515Z,33.15
2019-03-29T21:53:14.672Z,30.55
2019-03-29T21:55:43.856Z,33.98
2019-03-29T21:58:13.018Z,33.90
2019-03-29T22:00:42.067Z,29.80
2019-03-29T22:03:11.230Z,32.48
2019-03-29T22:05:40.390Z,29.70
2019-03-29T22:08:09.530Z,34.83
2019-03-29T22:10:38.699Z,31.35
2019-03-29T22:13:07.840Z,29.15
2019-03-29T22:15:36.899Z,40.03
2019-03-29T22:18:06.990Z,31.20
2019-03-29T22:20:36.231Z,31.68
2019-03-29T22:23:05.372Z,30.15
2019-03-29T22:25:34.563Z,28.83
2019-03-29T22:28:03.701Z,31.48
2019-03-29T22:30:32.759Z,32.38
2019-03-29T22:33:03.938Z,34.10
2019-03-29T22:35:33.069Z,31.27
2019-03-29T22:38:02.200Z,34.00
2019-03-29T22:40:31.350Z,27.85
2019-03-29T22:43:00.422Z,30.32
2019-03-29T22:45:29.485Z,32.28
2019-03-29T22:47:58.743Z,31.37
2019-03-29T22:50:27.879Z,30.77
2019-03-29T22:52:57.021Z,31.10
2019-03-29T22:55:26.190Z,31.75
2019-03-29T22:57:55.322Z,32.78
2019-03-29T23:00:35.370Z,26.82
2019-03-29T23:03:05.706Z,30.70
2019-03-29T23:05:35.010Z,32.75
2019-03-29T23:08:04.567Z,33.80
2019-03-29T23:10:33.735Z,28.87
2019-03-29T23:13:02.950Z,26.57
2019-03-29T23:15:32.111Z,32.75
2019-03-29T23:18:01.178Z,37.80
2019-03-29T23:20:30.235Z,31.17
2019-03-29T23:22:59.417Z,27.73
2019-03-29T23:25:28.512Z,33.20
2019-03-29T23:27:57.655Z,31.02
2019-03-29T23:30:26.815Z,30.72
2019-03-29T23:32:56.096Z,26.45
2019-03-29T23:35:25.259Z,26.52
2019-03-29T23:37:54.411Z,30.43
2019-03-29T23:40:23.487Z,24.82
2019-03-29T23:42:52.623Z,24.12
2019-03-29T23:45:21.770Z,24.27
2019-03-29T23:47:50.813Z,24.52
2019-03-29T23:50:19.868Z,20.95
2019-03-29T23:52:48.907Z,23.92
2019-03-29T23:55:18.075Z,23.07
2019-03-29T23:57:47.222Z,26.40
